Nearby METAR Reports

 

KMTN - Baltimore/Martin, Maryland, USA
Distance from station: SSE 8mi, 13km
Updated: Thu, 20-Nov-2014 10:54pm EST
Clear
Clear
 Wind from WNW
Wind: WNW 20 mph , 31 km/h, Gust: 29 mph , 46 km/h
Temperature: 36°F , 2°C
Wind Chill: 25°F , -4°C
Dew Point: 12°F , -11°C
Humidity: 38%
Barometer: 30.10 inHg , 1019.3 hPa
Clouds: Clear
Visibility: 10 miles , 16 km
2014/11/21 03:54 KMTN 210354Z AUTO 29017G25KT 10SM CLR 02/M11 A3010 RMK AO2
KDMH - Baltimore/Dwntwn, Maryland, USA
Distance from station: SW 12mi, 19km
Updated: Thu, 20-Nov-2014 9:54pm EST

 
Temperature: 37°F , 3°C
Dew Point: 9°F , -13°C
Humidity: 30%
Barometer: 30.06 inHg , 1017.9 hPa
2014/11/21 02:54 KDMH 210254Z AUTO 03/M13 A3006 RMK AO1 SLP179 T00281128 53030
 
KBWI - Balto/Wash Intl, Maryland, USA
Distance from station: SSW 20mi, 33km
Updated: Thu, 20-Nov-2014 9:54pm EST
Few Clouds
Few Clouds
 Wind from NW
Wind: NW 10 mph , 17 km/h
Temperature: 36°F , 2°C
Wind Chill: 29°F , -2°C
Dew Point: 10°F , -12°C
Humidity: 35%
Barometer: 30.06 inHg , 1017.9 hPa
Clouds: Few Clouds
Visibility: 10 miles , 16 km
Cloud details: Few Clouds 9000 ft
2014/11/21 02:54 KBWI 210254Z 32009KT 10SM FEW090 02/M12 A3006 RMK AO2 SLP179 T00171117 51025
KDMW - Carroll Cnty, Maryland, USA
Distance from station: WNW 30mi, 48km
Updated: Thu, 20-Nov-2014 10:50pm EST
Partly cloudy
Partly cloudy
 Wind from NW
Wind: NW 5 mph , 7 km/h
Temperature: 30°F , -1°C
Wind Chill: 25°F , -4°C
Dew Point: 10°F , -12°C
Humidity: 43%
Barometer: 30.07 inHg , 1018.3 hPa
Clouds: Partly cloudy
Visibility: 10 miles , 16 km
Cloud details: Partly cloudy 9000 ft
2014/11/21 03:50 KDMW 210350Z AUTO 31004KT 10SM SCT090 M01/M12 A3007 RMK AO2
 
KNAK - Annapolis/Naval, Maryland, USA
Distance from station: S 30mi, 48km
Updated: Thu, 20-Nov-2014 10:54pm EST
Clear
Clear
 Wind from WNW
Wind: WNW 14 mph , 22 km/h, Gust: 20 mph , 31 km/h
Temperature: 37°F , 3°C
Wind Chill: 28°F , -2°C
Dew Point: 16°F , -9°C
Humidity: 41%
Barometer: 30.07 inHg , 1018.3 hPa
Clouds: Clear
Visibility: 10 miles , 16 km
2014/11/21 03:54 KNAK 210354Z AUTO 30012G17KT 10SM CLR 03/M09 A3007 RMK AO2 SLP184 T00331089 $
KW29 - Stevensville, Maryland, USA
Distance from station: SSE 31mi, 50km
Updated: Thu, 20-Nov-2014 10:53pm EST

 Wind from NW
Wind: NW 16 mph , 26 km/h, Gust: 22 mph , 35 km/h
Temperature: 37°F , 3°C
Wind Chill: 28°F , -2°C
Dew Point: 14°F , -10°C
Humidity: 38%
Barometer: 30.07 inHg , 1018.3 hPa
Visibility: 10 miles , 16 km
2014/11/21 03:53 KW29 210353Z AUTO 32014G19KT 10SM 03/M10 A3007 RMK AO1
 
KCGS - College Park, Maryland, USA
Distance from station: SW 38mi, 61km
Updated: Thu, 20-Nov-2014 10:50pm EST
Clear
Clear
 Wind from NW
Wind: NW 10 mph , 17 km/h, Gust: 17 mph , 28 km/h
Temperature: 36°F , 2°C
Wind Chill: 29°F , -2°C
Dew Point: 10°F , -12°C
Humidity: 35%
Barometer: 30.08 inHg , 1018.6 hPa
Clouds: Clear
Visibility: 10 miles , 16 km
2014/11/21 03:50 KCGS 210350Z AUTO 32009G15KT 10SM CLR 02/M12 A3008 RMK AO1
KGAI - Gaithersburg, Maryland, USA
Distance from station: WSW 40mi, 65km
Updated: Thu, 20-Nov-2014 10:35pm EST
Clear
Clear
 Wind from NW
Wind: NW 6 mph , 9 km/h
Temperature: 32°F , 0°C
Wind Chill: 26°F , -3°C
Dew Point: 9°F , -13°C
Humidity: 37%
Barometer: 30.12 inHg , 1020 hPa
Clouds: Clear
Visibility: 10 miles , 16 km
2014/11/21 03:35 KGAI 210335Z 32005KT 10SM CLR 00/M13 A3012 RMK AO1
 
KTHV - York, Pennsylvania, USA
Distance from station: NNW 40mi, 65km
Updated: Thu, 20-Nov-2014 10:53pm EST
Few Clouds
Few Clouds
 Wind from WNW
Wind: WNW 7 mph , 11 km/h
Temperature: 28°F , -2°C
Wind Chill: 21°F , -6°C
Dew Point: 10°F , -12°C
Humidity: 47%
Barometer: 30.09 inHg , 1019 hPa
Clouds: Few Clouds
Visibility: 10 miles , 16 km
Cloud details: Few Clouds 6000 ft
2014/11/21 03:53 KTHV 210353Z AUTO 29006KT 10SM FEW060 M02/M12 A3009 RMK AO2 SLP196 T10171117
KFDK - Frederick, Maryland, USA
Distance from station: W 47mi, 75km
Updated: Thu, 20-Nov-2014 10:50pm EST
Clear
Clear
 Wind from WNW
Wind: WNW 15 mph , 24 km/h, Gust: 20 mph , 31 km/h
Temperature: 36°F , 2°C
Wind Chill: 27°F , -3°C
Dew Point: 7°F , -14°C
Humidity: 30%
Barometer: 30.14 inHg , 1020.7 hPa
Clouds: Clear
Visibility: 10 miles , 16 km
2014/11/21 03:50 KFDK 210350Z AUTO 30013G17KT 10SM CLR 02/M14 A3014 RMK AO2
 
KESN - Easton/Newnam, Maryland, USA
Distance from station: SSE 48mi, 78km
Updated: Thu, 20-Nov-2014 11:07pm EST
Clear
Clear
 Wind from NNW
Wind: NNW 7 mph , 11 km/h
Temperature: 37°F , 3°C
Wind Chill: 32°F , 0°C
Dew Point: 16°F , -9°C
Humidity: 41%
Barometer: 30.11 inHg , 1019.6 hPa
Clouds: Clear
Visibility: 10 miles , 16 km
2014/11/21 04:07 KESN 210407Z AUTO 33006KT 10SM CLR 03/M09 A3011 RMK AO2 T00321087
KDCA - Washington/Natl, Washington D.c., USA
Distance from station: SW 49mi, 79km
Updated: Thu, 20-Nov-2014 10:52pm EST
Clear
Clear
 Wind from NW
Wind: NW 21 mph , 33 km/h, Gust: 26 mph , 43 km/h
Temperature: 39°F , 4°C
Wind Chill: 29°F , -2°C
Dew Point: 12°F , -11°C
Humidity: 33%
Barometer: 30.09 inHg , 1019 hPa
Clouds: Clear
Visibility: 10 miles , 16 km
2014/11/21 03:52 KDCA 210352Z 32018G23KT 10SM CLR 04/M11 A3009 RMK AO2 SLP190 T00391111 $
 
KLNS - Lancaster, Pennsylvania, USA
Distance from station: N 49mi, 79km
Updated: Thu, 20-Nov-2014 10:53pm EST
Clear
Clear
 Wind from WNW
Wind: WNW 14 mph , 22 km/h, Gust: 23 mph , 37 km/h
Temperature: 28°F , -2°C
Wind Chill: 17°F , -8°C
Dew Point: 10°F , -12°C
Humidity: 47%
Barometer: 30.07 inHg , 1018.3 hPa
Clouds: Clear
Visibility: 10 miles , 16 km
2014/11/21 03:53 KLNS 210353Z AUTO 30012G20KT 10SM CLR M02/M12 A3007 RMK AO2 SLP187 T1022112
KILG - Wilmington, Delaware, USA
Distance from station: ENE 50mi, 81km
Updated: Thu, 20-Nov-2014 10:51pm EST
Clear
Clear
 Wind from NW
Wind: NW 16 mph , 26 km/h
Temperature: 32°F , 0°C
Wind Chill: 21°F , -6°C
Dew Point: 10°F , -12°C
Humidity: 40%
Barometer: 30.08 inHg , 1018.6 hPa
Clouds: Clear
Visibility: 10 miles , 16 km
2014/11/21 03:51 KILG 210351Z AUTO 32014KT 10SM CLR 00/M12 A3008 RMK AO2 SLP186 T00001117